Hartford, Connecticut
Traffic Map
Current Weather Conditions
Hartford, Connecticut
Overcast
Overcast
-4°
Feels Like: -8°
Wind Chill: -8° Ceiling: 9000
Heat Index: -4° Visibility: 10mi
Dew Point: -15° Wind: 7mph
Humidity: 43% Direction: 330° (NNW)
Pressure: 30.16in Gusts: 0mph
Raw Report DataKHFD 052153Z 33006KT 10SM OVC090 M04/M15 A3016 RMK AO2 SLP212 T10391150
Traffic Incident Summary
Active as of:
Severity:
Category:
InformationThere was an issue retrieving the traffic information for this location. Please try a different location or try again shortly.
Advertisements
Track Severe Weather on mobile